Time;durP1;ratioP1;P1;durP2;ratioP2;P2;SDS_P1;SDS_P2;PMS_P1;PMS_P2;Temp;Humidity;BMP_temperature;BMP_pressure;BME280_temperature;BME280_humidity;BME280_pressure;Samples;Min_cycle;Max_cycle;Signal;HPM_P1;HPM_P2
2023/06/28 00:02:20;;;;;;;7.97;2.90;;;20.80;52.80;;;;;;4943717;29;20393;-69
2023/06/28 00:04:46;;;;;;;6.20;2.97;;;20.80;52.90;;;;;;4948906;29;20198;-69
2023/06/28 00:07:11;;;;;;;7.43;3.20;;;20.80;52.90;;;;;;4942596;29;20438;-69
2023/06/28 00:09:37;;;;;;;6.43;2.83;;;20.80;52.80;;;;;;4945488;28;20302;-70
2023/06/28 00:12:03;;;;;;;6.80;3.00;;;20.60;53.40;;;;;;4941063;29;20200;-70
2023/06/28 00:14:29;;;;;;;4.43;2.90;;;20.50;53.80;;;;;;4947907;29;20188;-70
2023/06/28 00:16:54;;;;;;;5.17;2.63;;;20.60;53.70;;;;;;4949654;29;20500;-71
2023/06/28 00:19:26;;;;;;;5.60;2.50;;;20.50;54.00;;;;;;4946551;28;20201;-69
2023/06/28 00:21:55;;;;;;;5.87;2.77;;;20.40;54.40;;;;;;4942701;28;20224;-71
2023/06/28 00:24:21;;;;;;;9.17;3.00;;;20.40;54.50;;;;;;4949021;29;20429;-70
2023/06/28 00:26:47;;;;;;;4.67;2.40;;;20.20;54.90;;;;;;4946202;29;20519;-69
2023/06/28 00:29:13;;;;;;;7.30;3.07;;;20.00;55.60;;;;;;4945298;28;20889;-73
2023/06/28 00:31:38;;;;;;;4.37;2.53;;;20.10;55.40;;;;;;4942550;29;20285;-70
2023/06/28 00:34:04;;;;;;;5.77;2.90;;;20.10;55.40;;;;;;4947846;29;20276;-70
2023/06/28 00:36:30;;;;;;;6.10;2.77;;;20.10;55.40;;;;;;4939859;29;20674;-71
2023/06/28 00:38:55;;;;;;;4.20;2.63;;;20.00;55.80;;;;;;4941933;29;20578;-71
2023/06/28 00:41:21;;;;;;;8.90;3.00;;;20.00;56.00;;;;;;4950017;28;20216;-71
2023/06/28 00:43:46;;;;;;;8.73;2.70;;;20.20;55.70;;;;;;4953537;29;20180;-71
2023/06/28 00:46:12;;;;;;;5.13;3.10;;;20.10;56.00;;;;;;4954250;29;20196;-71
2023/06/28 00:48:38;;;;;;;5.87;2.67;;;20.00;56.20;;;;;;4950863;29;20194;-70
2023/06/28 00:51:04;;;;;;;8.00;2.70;;;20.00;56.40;;;;;;4947695;28;20216;-70
2023/06/28 00:53:30;;;;;;;6.90;2.80;;;20.10;56.20;;;;;;4952921;28;20199;-71
2023/06/28 00:55:57;;;;;;;6.77;3.00;;;20.00;56.40;;;;;;4943593;29;20424;-72
2023/06/28 00:58:25;;;;;;;6.20;2.73;;;20.00;56.80;;;;;;4951922;28;20208;-70
2023/06/28 01:00:51;;;;;;;3.80;2.53;;;19.80;57.00;;;;;;4945084;28;20482;-70
2023/06/28 01:03:18;;;;;;;7.47;2.43;;;19.90;57.00;;;;;;4947520;29;20444;-70
2023/06/28 01:05:51;;;;;;;5.90;2.53;;;19.80;57.30;;;;;;4968849;28;20304;-71
2023/06/28 01:08:18;;;;;;;6.40;3.50;;;19.80;57.60;;;;;;4950600;28;20522;-70
2023/06/28 01:10:44;;;;;;;4.93;2.97;;;19.70;57.70;;;;;;4938491;28;20551;-71
2023/06/28 01:13:10;;;;;;;8.57;3.03;;;19.80;57.70;;;;;;4945666;28;20474;-70
2023/06/28 01:15:35;;;;;;;6.73;3.33;;;19.90;57.70;;;;;;4950840;29;20447;-70
2023/06/28 01:18:02;;;;;;;7.23;3.20;;;19.70;58.10;;;;;;4950363;29;20195;-70
2023/06/28 01:20:30;;;;;;;7.80;3.37;;;19.70;58.20;;;;;;4941986;28;20204;-72
2023/06/28 01:22:56;;;;;;;5.67;2.90;;;19.60;58.80;;;;;;4943232;29;20950;-70
2023/06/28 01:25:22;;;;;;;5.73;3.20;;;19.50;59.10;;;;;;4954590;29;20493;-69
2023/06/28 01:27:49;;;;;;;6.67;3.40;;;19.50;59.20;;;;;;4950906;28;20270;-70
2023/06/28 01:30:16;;;;;;;7.40;3.23;;;19.50;59.60;;;;;;4947663;29;20628;-70
2023/06/28 01:32:45;;;;;;;5.60;2.97;;;19.40;59.60;;;;;;4945998;29;20539;-69
2023/06/28 01:35:10;;;;;;;7.63;3.73;;;19.40;59.90;;;;;;4944876;29;20428;-69
2023/06/28 01:37:38;;;;;;;7.83;3.23;;;19.40;59.70;;;;;;4954787;29;20458;-70
2023/06/28 01:40:05;;;;;;;8.97;3.73;;;19.40;59.90;;;;;;4949763;28;20239;-70
2023/06/28 01:42:33;;;;;;;6.50;3.13;;;19.40;60.00;;;;;;4945626;29;20515;-69
2023/06/28 01:44:59;;;;;;;6.23;3.10;;;19.50;60.40;;;;;;4954474;29;20442;-69
2023/06/28 01:47:25;;;;;;;6.87;3.53;;;19.60;60.00;;;;;;4946671;29;20451;-70
2023/06/28 01:49:50;;;;;;;5.57;3.30;;;19.50;60.10;;;;;;4946492;29;20232;-71
2023/06/28 01:52:16;;;;;;;5.53;3.27;;;19.60;60.60;;;;;;4953138;29;20191;-70
2023/06/28 01:54:41;;;;;;;8.50;4.20;;;19.60;60.10;;;;;;4959046;29;20575;-70
2023/06/28 01:57:07;;;;;;;6.70;3.00;;;19.70;61.00;;;;;;4955444;29;20196;-70
2023/06/28 01:59:33;;;;;;;6.63;3.90;;;19.60;60.90;;;;;;4951278;28;20712;-69
2023/06/28 02:01:58;;;;;;;4.67;2.83;;;19.70;61.90;;;;;;4947823;29;20234;-70
2023/06/28 02:04:24;;;;;;;6.97;3.80;;;19.80;62.60;;;;;;4951409;29;20223;-70
2023/06/28 02:06:50;;;;;;;11.80;3.20;;;19.90;62.60;;;;;;4950746;29;20199;-70
2023/06/28 02:09:15;;;;;;;9.23;3.50;;;19.90;63.90;;;;;;4952757;28;20546;-71
2023/06/28 02:11:41;;;;;;;6.30;3.20;;;20.00;62.80;;;;;;4948006;29;20200;-71
2023/06/28 02:14:06;;;;;;;7.90;3.80;;;19.90;62.20;;;;;;4950065;29;20753;-70
2023/06/28 02:16:32;;;;;;;8.70;3.67;;;19.90;62.30;;;;;;4951737;29;20542;-69
2023/06/28 02:19:02;;;;;;;3.90;2.80;;;19.80;62.20;;;;;;4952937;29;20196;-69
2023/06/28 02:21:27;;;;;;;9.57;3.90;;;19.70;62.50;;;;;;4945646;28;21058;-69
2023/06/28 02:23:53;;;;;;;4.60;3.53;;;19.80;62.50;;;;;;4947225;29;20431;-70
2023/06/28 02:26:18;;;;;;;9.67;3.87;;;19.80;62.30;;;;;;4949479;29;20231;-70
2023/06/28 02:28:44;;;;;;;6.10;3.37;;;19.80;62.60;;;;;;4948586;28;20203;-70
2023/06/28 02:31:10;;;;;;;6.50;3.63;;;19.80;62.90;;;;;;4939357;28;20263;-70
2023/06/28 02:33:35;;;;;;;7.33;3.70;;;19.70;63.50;;;;;;4950440;29;20184;-70
2023/06/28 02:36:01;;;;;;;9.53;3.40;;;19.70;63.50;;;;;;4954276;29;20192;-70
2023/06/28 02:38:26;;;;;;;8.73;3.40;;;19.60;63.50;;;;;;4953994;28;20307;-70
2023/06/28 02:40:52;;;;;;;4.90;3.23;;;19.60;63.50;;;;;;4941954;29;20236;-70
2023/06/28 02:43:18;;;;;;;4.50;3.30;;;19.60;63.50;;;;;;4949041;29;20187;-70
2023/06/28 02:45:43;;;;;;;4.63;2.93;;;19.60;63.40;;;;;;4956900;29;20207;-70
2023/06/28 02:48:09;;;;;;;4.77;3.13;;;19.60;63.40;;;;;;4959509;29;20203;-69
2023/06/28 02:50:34;;;;;;;6.60;3.30;;;19.60;63.50;;;;;;4951697;28;20239;-71
2023/06/28 02:53:00;;;;;;;9.60;3.87;;;19.50;63.70;;;;;;4953126;29;20208;-71
2023/06/28 02:55:26;;;;;;;5.90;3.33;;;19.50;63.50;;;;;;4954313;29;20198;-70
2023/06/28 02:57:52;;;;;;;5.73;3.03;;;19.40;63.90;;;;;;4954261;29;20190;-70
2023/06/28 03:00:18;;;;;;;9.03;3.77;;;19.40;63.80;;;;;;4949705;28;20234;-70
2023/06/28 03:02:44;;;;;;;4.30;3.10;;;19.40;63.80;;;;;;4951019;28;20519;-70
2023/06/28 03:05:09;;;;;;;7.10;3.53;;;19.40;63.90;;;;;;4948370;29;20202;-70
2023/06/28 03:07:35;;;;;;;5.47;3.47;;;19.30;63.90;;;;;;4950490;29;20202;-71
2023/06/28 03:10:00;;;;;;;3.90;3.30;;;19.30;63.80;;;;;;4941988;28;20307;-71
2023/06/28 03:12:26;;;;;;;7.37;4.23;;;19.40;63.50;;;;;;4951035;29;20643;-71
2023/06/28 03:14:51;;;;;;;5.13;2.97;;;19.30;63.50;;;;;;4953411;29;20191;-70
2023/06/28 03:17:20;;;;;;;5.13;3.53;;;19.40;63.20;;;;;;4948594;29;20672;-71
2023/06/28 03:19:46;;;;;;;6.77;4.17;;;19.40;63.10;;;;;;4941591;28;20242;-71
2023/06/28 03:22:11;;;;;;;8.30;3.47;;;19.40;63.20;;;;;;4940884;29;21048;-69
2023/06/28 03:24:37;;;;;;;8.40;3.33;;;19.30;63.20;;;;;;4940965;29;20196;-70
2023/06/28 03:27:03;;;;;;;4.70;3.40;;;19.20;63.50;;;;;;4952459;29;20214;-71
2023/06/28 03:29:29;;;;;;;7.00;3.70;;;19.30;63.70;;;;;;4949764;28;20239;-69
2023/06/28 03:31:55;;;;;;;5.67;3.97;;;19.20;63.90;;;;;;4949923;29;20693;-70
2023/06/28 03:34:20;;;;;;;9.87;4.43;;;19.20;63.90;;;;;;4948001;29;20443;-71
2023/06/28 03:36:47;;;;;;;5.83;3.30;;;19.30;63.70;;;;;;4951560;29;20241;-69
2023/06/28 03:39:13;;;;;;;5.73;3.33;;;19.30;63.50;;;;;;4946763;28;20615;-71
2023/06/28 03:41:39;;;;;;;7.67;3.57;;;19.20;63.90;;;;;;4943525;28;20495;-70
2023/06/28 03:44:05;;;;;;;6.80;3.63;;;19.10;63.90;;;;;;4949047;28;20183;-71
2023/06/28 03:46:30;;;;;;;7.83;4.03;;;19.10;63.80;;;;;;4953139;29;20778;-70
2023/06/28 03:48:56;;;;;;;5.90;3.53;;;19.00;64.20;;;;;;4951760;28;20210;-70
2023/06/28 03:51:22;;;;;;;6.57;3.57;;;18.90;64.80;;;;;;4941204;28;20742;-70
2023/06/28 03:53:47;;;;;;;6.40;3.67;;;18.90;65.00;;;;;;4946781;29;20205;-70
2023/06/28 03:56:13;;;;;;;7.23;3.33;;;18.90;65.30;;;;;;4950064;29;20204;-69
2023/06/28 03:58:38;;;;;;;5.50;3.30;;;18.90;65.30;;;;;;4949332;29;20198;-70
2023/06/28 04:01:04;;;;;;;10.20;4.10;;;18.90;65.10;;;;;;4946037;29;20221;-71
2023/06/28 04:03:29;;;;;;;3.87;2.93;;;18.80;65.60;;;;;;4950969;29;20192;-69
2023/06/28 04:05:55;;;;;;;8.63;3.80;;;18.80;66.00;;;;;;4952562;29;20260;-71
2023/06/28 04:08:20;;;;;;;4.37;3.17;;;18.70;66.10;;;;;;4951826;29;20227;-69
2023/06/28 04:10:46;;;;;;;5.63;3.70;;;18.70;66.30;;;;;;4949935;28;20273;-70
2023/06/28 04:13:12;;;;;;;6.50;3.80;;;18.60;66.60;;;;;;4940956;29;20196;-70
2023/06/28 04:15:37;;;;;;;6.63;3.20;;;18.60;66.60;;;;;;4943251;29;20193;-71
2023/06/28 04:18:03;;;;;;;10.83;4.20;;;18.60;66.70;;;;;;4952277;29;20200;-71
2023/06/28 04:20:28;;;;;;;5.00;3.57;;;18.70;66.40;;;;;;4948088;28;20212;-69
2023/06/28 04:22:54;;;;;;;7.97;4.13;;;18.70;66.40;;;;;;4949198;29;20782;-70
2023/06/28 04:25:20;;;;;;;5.63;3.80;;;18.70;66.30;;;;;;4951326;29;20194;-70
2023/06/28 04:27:45;;;;;;;5.83;3.80;;;18.80;66.00;;;;;;4950592;29;20685;-70
2023/06/28 04:30:11;;;;;;;5.20;3.57;;;18.80;66.00;;;;;;4947184;28;20765;-71
2023/06/28 04:32:36;;;;;;;6.20;3.53;;;18.90;66.00;;;;;;4952908;29;20605;-70
2023/06/28 04:35:03;;;;;;;10.50;4.10;;;18.90;65.80;;;;;;4952414;29;20370;-71
2023/06/28 04:37:31;;;;;;;7.27;4.20;;;18.80;66.00;;;;;;4949266;28;20281;-70
2023/06/28 04:40:04;;;;;;;7.27;3.80;;;18.50;66.60;;;;;;4940626;29;20483;-70
2023/06/28 04:42:29;;;;;;;5.07;3.67;;;18.50;67.00;;;;;;4945992;29;20857;-70
2023/06/28 04:44:59;;;;;;;8.10;4.03;;;18.70;66.70;;;;;;4952773;29;20527;-71
2023/06/28 04:47:27;;;;;;;5.00;3.83;;;18.80;66.30;;;;;;4948919;29;20204;-71
2023/06/28 04:49:53;;;;;;;4.50;3.20;;;18.90;66.10;;;;;;4949301;28;20470;-71
2023/06/28 04:52:21;;;;;;;7.87;3.87;;;19.00;66.00;;;;;;4945665;28;20435;-72
2023/06/28 04:54:47;;;;;;;6.40;3.40;;;19.00;65.80;;;;;;4950012;29;20432;-70
2023/06/28 04:57:14;;;;;;;5.97;3.90;;;19.10;65.60;;;;;;4961718;28;20496;-71
2023/06/28 04:59:40;;;;;;;9.10;4.03;;;19.10;65.60;;;;;;4965821;28;20498;-70
2023/06/28 05:02:06;;;;;;;5.60;3.90;;;19.10;65.40;;;;;;4959971;29;20488;-70
2023/06/28 05:04:32;;;;;;;5.43;3.57;;;19.10;64.80;;;;;;4960505;28;20451;-71
2023/06/28 05:07:09;;;;;;;7.00;3.20;;;19.10;64.80;;;;;;4960154;28;20251;-69
2023/06/28 05:09:36;;;;;;;6.20;3.77;;;18.90;65.00;;;;;;4955071;28;20505;-70
2023/06/28 05:12:03;;;;;;;6.57;3.97;;;18.70;65.10;;;;;;4943520;28;20444;-70
2023/06/28 05:14:29;;;;;;;7.43;3.40;;;18.70;65.40;;;;;;4954124;29;20442;-70
2023/06/28 05:16:55;;;;;;;6.30;3.90;;;18.50;65.80;;;;;;4955239;29;20810;-70
2023/06/28 05:19:23;;;;;;;8.03;3.43;;;18.40;66.30;;;;;;4952561;28;20440;-71
2023/06/28 05:21:49;;;;;;;6.53;3.70;;;18.40;66.40;;;;;;4946488;29;20842;-70
2023/06/28 05:24:16;;;;;;;4.53;3.70;;;18.50;66.60;;;;;;4951629;29;20431;-72
2023/06/28 05:26:42;;;;;;;6.80;3.93;;;18.60;66.10;;;;;;4952489;29;20201;-71
2023/06/28 05:29:08;;;;;;;4.30;3.60;;;18.60;66.00;;;;;;4953222;28;20941;-69
2023/06/28 05:31:36;;;;;;;8.53;4.03;;;18.70;66.00;;;;;;4951147;29;20511;-70
2023/06/28 05:34:02;;;;;;;6.77;3.80;;;18.80;65.70;;;;;;4955469;28;20228;-69
2023/06/28 05:36:27;;;;;;;5.60;3.80;;;18.90;65.10;;;;;;4951709;28;20494;-70
2023/06/28 05:38:55;;;;;;;8.23;3.90;;;19.00;65.00;;;;;;4949440;29;20199;-72
2023/06/28 05:41:21;;;;;;;5.67;4.10;;;19.00;65.30;;;;;;4947662;29;20228;-71
2023/06/28 05:43:47;;;;;;;8.20;3.60;;;19.00;64.80;;;;;;4957552;28;20450;-71
2023/06/28 05:46:13;;;;;;;7.50;3.77;;;19.00;65.00;;;;;;4961800;28;20194;-72
2023/06/28 05:48:39;;;;;;;5.60;3.33;;;19.10;65.00;;;;;;4953807;29;20532;-71
2023/06/28 05:51:09;;;;;;;7.63;4.00;;;19.20;64.50;;;;;;4942890;29;20572;-76
2023/06/28 05:53:37;;;;;;;9.70;3.70;;;19.30;64.20;;;;;;4949185;28;20734;-70
2023/06/28 05:56:03;;;;;;;7.27;3.87;;;19.50;62.50;;;;;;4946111;29;21007;-72
2023/06/28 05:58:29;;;;;;;4.90;3.63;;;19.50;63.10;;;;;;4948480;28;20490;-71
2023/06/28 06:00:54;;;;;;;9.20;3.83;;;19.40;63.40;;;;;;4944208;29;20479;-71
2023/06/28 06:03:20;;;;;;;4.23;3.17;;;19.60;62.80;;;;;;4950146;29;20568;-72
2023/06/28 06:05:46;;;;;;;8.63;4.23;;;19.50;62.80;;;;;;4944250;29;20196;-71
2023/06/28 06:08:12;;;;;;;8.23;4.57;;;19.50;63.20;;;;;;4947882;28;20282;-77
2023/06/28 06:10:38;;;;;;;8.00;3.73;;;19.40;63.80;;;;;;4940739;28;20478;-78
2023/06/28 06:13:04;;;;;;;8.27;4.10;;;19.30;64.10;;;;;;4945216;29;20471;-77
2023/06/28 06:15:30;;;;;;;9.90;4.03;;;19.40;63.90;;;;;;4960196;29;20189;-77
2023/06/28 06:17:56;;;;;;;7.37;3.63;;;19.30;63.70;;;;;;4957728;29;20475;-76
2023/06/28 06:20:22;;;;;;;8.40;4.27;;;19.40;63.70;;;;;;4948067;28;20216;-76
2023/06/28 06:22:48;;;;;;;6.07;3.60;;;19.40;62.60;;;;;;4944107;29;20574;-77
2023/06/28 06:25:14;;;;;;;8.70;3.53;;;19.60;62.00;;;;;;4953690;29;20204;-77
2023/06/28 06:27:40;;;;;;;5.70;3.80;;;19.80;61.90;;;;;;4949823;29;20454;-76
2023/06/28 06:30:06;;;;;;;9.97;3.10;;;19.80;61.70;;;;;;4947167;29;20205;-76
2023/06/28 06:32:32;;;;;;;5.87;3.57;;;19.80;61.60;;;;;;4943331;29;20195;-78
2023/06/28 06:34:57;;;;;;;9.20;3.90;;;19.90;61.50;;;;;;4950148;29;20492;-77
2023/06/28 06:37:26;;;;;;;14.63;3.87;;;20.00;61.00;;;;;;4946776;29;20236;-77
2023/06/28 06:39:53;;;;;;;5.97;3.70;;;20.00;61.30;;;;;;4946025;29;20309;-76
2023/06/28 06:42:19;;;;;;;8.10;3.53;;;20.00;61.60;;;;;;4945701;29;20851;-76
2023/06/28 06:44:45;;;;;;;6.53;3.70;;;20.10;61.00;;;;;;4951512;29;20432;-72
2023/06/28 06:47:10;;;;;;;6.77;3.57;;;20.20;60.60;;;;;;4954279;29;20313;-71
2023/06/28 06:49:36;;;;;;;6.97;3.43;;;20.20;60.40;;;;;;4953114;28;20768;-71
2023/06/28 06:52:02;;;;;;;5.40;3.50;;;20.10;61.00;;;;;;4945750;28;20196;-72
2023/06/28 06:54:29;;;;;;;8.33;4.07;;;20.20;61.20;;;;;;4961556;28;20250;-72
2023/06/28 06:56:56;;;;;;;9.93;3.40;;;20.30;61.00;;;;;;4953697;28;20444;-71
2023/06/28 06:59:23;;;;;;;8.33;4.00;;;20.10;59.70;;;;;;4951515;28;20929;-71
2023/06/28 07:01:50;;;;;;;6.10;3.47;;;20.40;60.30;;;;;;4954842;29;20492;-72
2023/06/28 07:04:16;;;;;;;6.87;2.83;;;20.40;59.30;;;;;;4955298;28;20514;-73
2023/06/28 07:06:44;;;;;;;9.03;3.30;;;20.70;58.80;;;;;;4951691;28;20432;-72
2023/06/28 07:09:10;;;;;;;8.50;2.93;;;20.90;56.60;;;;;;4943631;29;20926;-71
2023/06/28 07:11:36;;;;;;;5.33;3.13;;;20.90;56.60;;;;;;4951625;29;20449;-71
2023/06/28 07:14:01;;;;;;;5.53;4.00;;;21.10;56.20;;;;;;4954819;29;20284;-70
2023/06/28 07:16:27;;;;;;;8.30;3.10;;;21.20;56.10;;;;;;4948586;29;20952;-71
2023/06/28 07:18:54;;;;;;;9.53;3.73;;;20.70;56.60;;;;;;4950844;29;20549;-72
2023/06/28 07:21:20;;;;;;;7.40;3.53;;;20.70;57.00;;;;;;4948147;28;20222;-72
2023/06/28 07:23:46;;;;;;;4.70;3.10;;;20.40;58.40;;;;;;4946298;29;20532;-71
2023/06/28 07:26:14;;;;;;;5.07;3.60;;;20.40;57.80;;;;;;4945843;28;20450;-71
2023/06/28 07:28:40;;;;;;;8.37;4.00;;;20.70;56.40;;;;;;4953074;29;20535;-72
2023/06/28 07:31:06;;;;;;;7.20;2.90;;;20.80;56.00;;;;;;4950039;28;20472;-71
2023/06/28 07:33:31;;;;;;;5.27;3.40;;;20.80;56.00;;;;;;4943956;29;20478;-72
2023/06/28 07:35:57;;;;;;;6.30;3.00;;;20.40;56.10;;;;;;4954238;29;20235;-70
2023/06/28 07:38:23;;;;;;;5.80;2.90;;;20.30;56.60;;;;;;4952477;29;20633;-72
2023/06/28 07:40:49;;;;;;;5.87;2.80;;;20.20;57.20;;;;;;4944086;28;20243;-71
2023/06/28 07:43:16;;;;;;;7.87;3.20;;;20.30;56.80;;;;;;4950695;29;20681;-73
2023/06/28 07:45:42;;;;;;;5.60;3.03;;;20.10;57.60;;;;;;4955360;28;20432;-72
2023/06/28 07:48:08;;;;;;;5.50;3.13;;;20.20;58.00;;;;;;4953136;29;20441;-72
2023/06/28 07:50:34;;;;;;;6.30;3.57;;;20.60;57.30;;;;;;4945162;28;20228;-71
2023/06/28 07:52:59;;;;;;;5.17;3.30;;;20.80;56.50;;;;;;4946906;28;20678;-71
2023/06/28 07:55:27;;;;;;;7.60;3.17;;;20.90;56.20;;;;;;4950498;29;20473;-71
2023/06/28 07:57:56;;;;;;;7.60;3.20;;;21.00;55.40;;;;;;4951321;28;20201;-70
2023/06/28 08:00:22;;;;;;;4.90;2.67;;;21.20;55.40;;;;;;4947425;28;20471;-72
2023/06/28 08:02:48;;;;;;;4.60;3.37;;;20.80;55.60;;;;;;4952902;28;20488;-71
2023/06/28 08:05:14;;;;;;;9.03;3.10;;;20.60;56.10;;;;;;4953802;28;20432;-72
2023/06/28 08:07:40;;;;;;;5.30;3.07;;;20.70;56.20;;;;;;4954035;28;20197;-71
2023/06/28 08:10:06;;;;;;;7.70;3.60;;;21.00;55.70;;;;;;4958889;28;20471;-72
2023/06/28 08:12:31;;;;;;;5.03;2.63;;;21.10;56.00;;;;;;4963679;29;20208;-70
2023/06/28 08:14:57;;;;;;;4.27;3.00;;;21.20;55.20;;;;;;4957331;28;20277;-71
2023/06/28 08:17:23;;;;;;;5.27;2.63;;;21.50;54.50;;;;;;4954019;29;20221;-72
2023/06/28 08:19:48;;;;;;;6.90;3.40;;;21.70;53.70;;;;;;4942751;29;20249;-73
2023/06/28 08:22:14;;;;;;;6.83;3.40;;;21.60;54.00;;;;;;4942942;29;20215;-71
2023/06/28 08:24:40;;;;;;;8.83;3.10;;;21.30;55.20;;;;;;4942512;29;20195;-71
2023/06/28 08:27:06;;;;;;;8.70;3.50;;;21.60;54.80;;;;;;4946432;29;20718;-72
2023/06/28 08:29:32;;;;;;;4.70;3.10;;;21.80;54.20;;;;;;4943921;28;20298;-73
2023/06/28 08:31:57;;;;;;;5.93;3.80;;;21.70;54.80;;;;;;4945102;28;20448;-73
2023/06/28 08:34:23;;;;;;;10.63;4.03;;;21.60;54.40;;;;;;4946545;29;20209;-73
2023/06/28 08:36:48;;;;;;;7.07;3.03;;;21.80;54.10;;;;;;4953094;29;20194;-72
2023/06/28 08:39:14;;;;;;;8.07;3.87;;;21.30;54.90;;;;;;4950696;28;20207;-71
2023/06/28 08:41:40;;;;;;;5.27;3.50;;;21.40;55.20;;;;;;4946918;29;20605;-71
2023/06/28 08:44:12;;;;;;;9.27;3.43;;;21.30;54.40;;;;;;4965938;23;20240;-73
2023/06/28 08:46:39;;;;;;;8.57;4.00;;;20.90;55.40;;;;;;4964069;28;20458;-73
2023/06/28 08:49:05;;;;;;;4.50;2.90;;;21.10;55.20;;;;;;4981835;28;20449;-73
2023/06/28 08:51:32;;;;;;;7.50;3.00;;;21.60;54.60;;;;;;4952863;28;20493;-72
2023/06/28 08:53:58;;;;;;;7.17;3.33;;;22.10;53.60;;;;;;4956630;29;20446;-73
2023/06/28 08:56:26;;;;;;;9.13;4.33;;;22.40;52.60;;;;;;4954340;29;20442;-72
2023/06/28 08:58:53;;;;;;;7.03;3.00;;;22.60;51.80;;;;;;4955870;29;20435;-73
2023/06/28 09:01:22;;;;;;;7.20;3.27;;;22.70;52.00;;;;;;4950799;28;20574;-73
2023/06/28 09:03:48;;;;;;;4.47;3.10;;;22.80;51.40;;;;;;4954968;29;20432;-73
2023/06/28 09:06:15;;;;;;;5.27;3.40;;;22.80;51.30;;;;;;4952789;29;20447;-71
2023/06/28 09:08:42;;;;;;;9.03;3.37;;;22.50;51.70;;;;;;4952355;29;20448;-72
2023/06/28 09:11:08;;;;;;;8.37;3.60;;;22.60;51.70;;;;;;4939789;29;20548;-73
2023/06/28 09:13:35;;;;;;;7.17;3.57;;;22.70;51.20;;;;;;4948849;29;20438;-72
2023/06/28 09:16:00;;;;;;;4.70;3.33;;;22.20;52.50;;;;;;4951690;29;20982;-71
2023/06/28 09:18:26;;;;;;;5.60;3.43;;;22.50;51.80;;;;;;4957752;28;20577;-72
2023/06/28 09:20:54;;;;;;;5.17;3.03;;;22.70;51.70;;;;;;4945737;29;20296;-72
2023/06/28 09:23:27;;;;;;;4.93;2.53;;;23.10;50.60;;;;;;4951405;29;20338;-73
2023/06/28 09:25:53;;;;;;;7.57;3.37;;;23.00;50.60;;;;;;4956108;29;20820;-72
2023/06/28 09:28:21;;;;;;;7.20;3.97;;;23.10;50.60;;;;;;4957105;29;20456;-73
2023/06/28 09:30:56;;;;;;;6.43;3.43;;;23.40;49.90;;;;;;4948186;29;20892;-73
2023/06/28 09:33:23;;;;;;;4.13;2.80;;;23.10;49.80;;;;;;4951375;29;20549;-72
2023/06/28 09:35:56;;;;;;;6.33;3.17;;;22.70;51.00;;;;;;4952590;29;20443;-73
2023/06/28 09:38:22;;;;;;;4.17;3.10;;;22.60;51.30;;;;;;4946714;29;20879;-72
2023/06/28 09:40:57;;;;;;;7.57;2.80;;;22.40;51.70;;;;;;4943860;29;20462;-72
2023/06/28 09:43:23;;;;;;;7.07;3.50;;;22.50;52.10;;;;;;4948360;28;20441;-71
2023/06/28 09:45:52;;;;;;;4.30;2.70;;;22.90;50.90;;;;;;4957831;29;20430;-72
2023/06/28 09:48:23;;;;;;;4.80;3.17;;;23.00;50.60;;;;;;4957640;29;20525;-72
2023/06/28 09:50:48;;;;;;;8.50;3.07;;;23.10;50.50;;;;;;4951585;28;20523;-73
2023/06/28 09:53:19;;;;;;;9.53;3.30;;;22.90;51.00;;;;;;4952576;28;20525;-72
2023/06/28 09:55:46;;;;;;;5.93;3.33;;;23.30;50.60;;;;;;4958442;29;20191;-72
2023/06/28 09:58:14;;;;;;;8.10;2.93;;;22.90;51.00;;;;;;4959411;29;20462;-72
2023/06/28 10:00:42;;;;;;;5.97;3.20;;;22.50;52.00;;;;;;4960243;29;20478;-73
2023/06/28 10:03:12;;;;;;;4.33;2.80;;;22.20;52.40;;;;;;4944344;29;20972;-72
2023/06/28 10:05:40;;;;;;;7.40;3.27;;;22.00;52.90;;;;;;4955017;29;20468;-73
2023/06/28 10:08:12;;;;;;;6.97;3.37;;;21.80;53.30;;;;;;4954825;29;20444;-72
2023/06/28 10:10:39;;;;;;;4.27;2.63;;;21.60;53.80;;;;;;4943222;29;20499;-72
2023/06/28 10:13:11;;;;;;;4.90;2.83;;;21.90;53.60;;;;;;4950307;29;20956;-72
2023/06/28 10:15:53;;;;;;;7.17;3.10;;;22.30;52.60;;;;;;4954594;29;20493;-72
2023/06/28 10:18:19;;;;;;;5.80;3.37;;;22.70;51.80;;;;;;4954600;29;20953;-71
2023/06/28 10:20:47;;;;;;;7.83;3.63;;;22.00;52.80;;;;;;4943899;29;20481;-73
2023/06/28 10:23:13;;;;;;;6.10;3.50;;;22.00;53.60;;;;;;4948264;29;20493;-71
2023/06/28 10:25:41;;;;;;;6.97;3.50;;;22.30;52.50;;;;;;4954816;29;20442;-73
2023/06/28 10:28:06;;;;;;;8.30;3.73;;;21.90;53.30;;;;;;4953480;29;20524;-71
2023/06/28 10:30:33;;;;;;;5.80;3.13;;;21.90;53.70;;;;;;4948301;28;20880;-73
2023/06/28 10:33:00;;;;;;;7.63;3.80;;;22.10;53.30;;;;;;4952440;29;20228;-71
2023/06/28 10:35:26;;;;;;;8.10;3.00;;;22.20;53.20;;;;;;4958161;29;20550;-71
2023/06/28 10:37:56;;;;;;;4.47;2.77;;;22.40;52.60;;;;;;4962379;29;20447;-74
2023/06/28 10:40:22;;;;;;;6.40;2.63;;;22.90;52.10;;;;;;4948239;29;21065;-72
2023/06/28 10:42:48;;;;;;;5.43;3.07;;;23.40;50.60;;;;;;4952605;29;20489;-71
2023/06/28 10:45:13;;;;;;;12.13;3.53;;;23.90;49.00;;;;;;4952987;29;20189;-72
2023/06/28 10:47:54;;;;;;;7.50;2.90;;;23.60;49.00;;;;;;4954090;29;20217;-72
2023/06/28 10:50:22;;;;;;;6.17;3.10;;;23.70;49.50;;;;;;4946309;29;20221;-71
2023/06/28 10:52:52;;;;;;;6.10;2.90;;;23.70;49.40;;;;;;4958174;28;20441;-72
2023/06/28 10:55:19;;;;;;;7.73;3.27;;;23.90;48.90;;;;;;4956304;28;20439;-72
2023/06/28 10:57:45;;;;;;;6.70;2.90;;;23.70;49.10;;;;;;4959970;29;20927;-70
2023/06/28 11:00:45;;;;;;;5.37;3.33;;;23.60;49.90;;;;;;4948552;29;20477;-72
2023/06/28 11:03:11;;;;;;;7.40;2.80;;;24.00;48.90;;;;;;4948394;29;20221;-72
2023/06/28 11:05:45;;;;;;;5.73;3.43;;;24.20;48.10;;;;;;4950697;29;20510;-71
2023/06/28 11:08:13;;;;;;;8.70;3.70;;;24.70;47.10;;;;;;4948841;29;20195;-72
2023/06/28 11:10:41;;;;;;;7.77;3.00;;;25.00;46.50;;;;;;4950626;29;20523;-72
2023/06/28 11:13:15;;;;;;;4.80;3.30;;;25.10;45.50;;;;;;4952717;29;20475;-73
2023/06/28 11:15:45;;;;;;;6.97;3.47;;;24.70;46.30;;;;;;4954805;29;20435;-71
2023/06/28 11:18:20;;;;;;;5.90;3.77;;;24.70;46.60;;;;;;4955869;29;20463;-72
2023/06/28 11:20:53;;;;;;;5.80;3.10;;;24.20;47.70;;;;;;4950111;28;20589;-73
2023/06/28 11:23:29;;;;;;;4.30;2.70;;;24.80;46.70;;;;;;4946562;29;20538;-73
2023/06/28 11:26:02;;;;;;;4.77;3.30;;;25.30;45.90;;;;;;4954776;29;20449;-72
2023/06/28 11:28:30;;;;;;;5.17;3.07;;;25.40;45.70;;;;;;4955529;29;20436;-73
2023/06/28 11:31:10;;;;;;;6.93;3.30;;;25.10;45.40;;;;;;4946359;29;20472;-72
2023/06/28 11:33:36;;;;;;;5.67;3.07;;;25.30;45.00;;;;;;4951301;29;20429;-72
2023/06/28 11:36:03;;;;;;;4.53;3.17;;;24.80;45.80;;;;;;4954757;29;20956;-71
2023/06/28 11:38:41;;;;;;;5.30;3.10;;;25.10;45.40;;;;;;4956986;29;20479;-71
2023/06/28 11:41:09;;;;;;;4.20;2.60;;;25.60;44.70;;;;;;4922421;29;20481;-72
2023/06/28 11:43:35;;;;;;;5.33;2.73;;;25.50;44.50;;;;;;4945810;29;20466;-71
2023/06/28 11:46:02;;;;;;;4.73;3.00;;;25.70;43.70;;;;;;4955198;29;20520;-73
2023/06/28 11:48:27;;;;;;;4.00;2.77;;;26.00;43.10;;;;;;4955336;29;20205;-72
2023/06/28 11:50:57;;;;;;;7.20;3.27;;;26.20;42.80;;;;;;4951617;29;20472;-72
2023/06/28 11:53:24;;;;;;;7.03;3.17;;;26.20;42.40;;;;;;4957034;28;20686;-72
2023/06/28 11:55:51;;;;;;;4.90;2.80;;;25.60;43.90;;;;;;4962605;29;20440;-74
2023/06/28 11:58:49;;;;;;;10.77;4.10;;;24.90;45.50;;;;;;4957287;29;20453;-73
2023/06/28 12:01:22;;;;;;;6.50;2.83;;;23.90;47.70;;;;;;4851462;29;20487;-73
2023/06/28 12:03:47;;;;;;;6.03;3.07;;;23.90;47.90;;;;;;4859443;29;20458;-73
2023/06/28 12:06:13;;;;;;;5.27;2.87;;;24.40;47.40;;;;;;4861640;29;20856;-72
2023/06/28 12:08:40;;;;;;;8.50;3.50;;;25.00;45.90;;;;;;4859812;29;20207;-72
2023/06/28 12:11:17;;;;;;;6.00;3.50;;;25.20;45.30;;;;;;4854351;29;20784;-72
2023/06/28 12:13:43;;;;;;;7.87;3.23;;;25.90;43.50;;;;;;4853708;29;20444;-72
2023/06/28 12:16:21;;;;;;;6.00;3.33;;;26.00;43.40;;;;;;4859808;29;21030;-73
2023/06/28 12:19:01;;;;;;;4.20;2.97;;;26.10;42.70;;;;;;4843235;29;20463;-73
2023/06/28 12:21:29;;;;;;;3.43;2.90;;;25.90;43.00;;;;;;4852687;29;21035;-72
2023/06/28 12:24:12;;;;;;;5.87;3.50;;;25.40;44.20;;;;;;4848345;29;20962;-73
2023/06/28 12:26:39;;;;;;;5.30;3.10;;;25.80;43.80;;;;;;4855125;29;20530;-74
2023/06/28 12:29:07;;;;;;;9.07;3.63;;;26.20;43.00;;;;;;4857541;29;20448;-74
2023/06/28 12:31:47;;;;;;;12.77;3.37;;;26.30;43.00;;;;;;4850035;29;20451;-73
2023/06/28 12:34:26;;;;;;;7.03;2.70;;;26.20;43.20;;;;;;4854888;29;20571;-72
2023/06/28 12:37:00;;;;;;;4.47;2.90;;;25.80;43.80;;;;;;4899170;29;20452;-71
2023/06/28 12:39:31;;;;;;;6.30;3.07;;;25.90;43.50;;;;;;4951590;29;20545;-72
2023/06/28 12:42:01;;;;;;;11.63;2.93;;;25.90;43.50;;;;;;4953035;29;21068;-72
2023/06/28 12:44:27;;;;;;;5.20;2.90;;;26.60;42.30;;;;;;4952546;29;20457;-72
2023/06/28 12:46:53;;;;;;;9.57;2.50;;;26.80;42.00;;;;;;4954564;29;20518;-73